createdAt,value
2018-12-15T00:01:45.674Z,98833.80
2018-12-15T00:04:14.222Z,98832.03
2018-12-15T00:06:42.677Z,98838.19
2018-12-15T00:09:11.170Z,98837.64
2018-12-15T00:11:39.645Z,98843.28
2018-12-15T00:14:08.110Z,98845.16
2018-12-15T00:16:36.572Z,98840.87
2018-12-15T00:19:05.083Z,98840.98
2018-12-15T00:21:33.529Z,98842.27
2018-12-15T00:24:02.126Z,98844.20
2018-12-15T00:26:30.611Z,98840.60
2018-12-15T00:28:59.171Z,98844.95
2018-12-15T00:31:27.628Z,98853.05
2018-12-15T00:33:56.141Z,98848.18
2018-12-15T00:36:24.888Z,98851.70
2018-12-15T00:38:53.380Z,98854.92
2018-12-15T00:41:21.830Z,98852.53
2018-12-15T00:43:50.326Z,98855.02
2018-12-15T00:46:18.894Z,98853.03
2018-12-15T00:48:47.405Z,98854.31
2018-12-15T00:51:15.943Z,98857.53
2018-12-15T00:53:44.414Z,98860.58
2018-12-15T00:56:12.882Z,98868.97
2018-12-15T00:58:41.415Z,98860.06
2018-12-15T01:01:09.983Z,98862.89
2018-12-15T01:03:38.494Z,98865.39
2018-12-15T01:06:06.968Z,98871.70
2018-12-15T01:08:35.475Z,98869.30
2018-12-15T01:11:03.955Z,98864.81
2018-12-15T01:13:32.536Z,98865.38
2018-12-15T01:16:00.997Z,98867.92
2018-12-15T01:18:29.510Z,98871.34
2018-12-15T01:20:57.981Z,98876.67
2018-12-15T01:23:26.484Z,98868.53
2018-12-15T01:25:55.050Z,98868.09
2018-12-15T01:28:23.558Z,98868.53
2018-12-15T01:30:52.033Z,98867.00
2018-12-15T01:33:20.530Z,98879.09
2018-12-15T01:35:48.990Z,98876.39
2018-12-15T01:38:17.501Z,98870.65
2018-12-15T01:40:46.186Z,98874.13
2018-12-15T01:43:14.663Z,98879.50
2018-12-15T01:45:43.163Z,98880.92
2018-12-15T01:48:11.669Z,98884.62
2018-12-15T01:50:40.128Z,98881.30
2018-12-15T01:53:08.626Z,98886.86
2018-12-15T01:55:37.190Z,98899.75
2018-12-15T01:58:05.755Z,98900.38
2018-12-15T02:00:34.281Z,98902.13
2018-12-15T02:03:02.779Z,98905.96
2018-12-15T02:05:31.253Z,98908.72
2018-12-15T02:07:59.779Z,98908.48
2018-12-15T02:10:28.325Z,98905.70
2018-12-15T02:12:56.799Z,98907.75
2018-12-15T02:15:25.300Z,98909.12
2018-12-15T02:17:54.423Z,98906.13
2018-12-15T02:20:23.038Z,98902.30
2018-12-15T02:22:51.578Z,98907.13
2018-12-15T02:25:20.093Z,98902.53
2018-12-15T02:27:48.667Z,98908.66
2018-12-15T02:30:17.236Z,98903.36
2018-12-15T02:32:45.722Z,98903.89
2018-12-15T02:35:14.184Z,98895.75
2018-12-15T02:37:42.663Z,98899.09
2018-12-15T02:40:11.247Z,98904.45
2018-12-15T02:42:39.749Z,98893.72
2018-12-15T02:45:08.247Z,98900.16
2018-12-15T02:47:41.583Z,98902.28
2018-12-15T02:50:07.365Z,98901.23
2018-12-15T02:52:35.891Z,98911.41
2018-12-15T02:55:04.577Z,98914.39
2018-12-15T02:57:33.162Z,98915.30
2018-12-15T03:00:01.639Z,98916.81
2018-12-15T03:02:30.236Z,98916.87
2018-12-15T03:04:58.702Z,98917.48
2018-12-15T03:07:27.465Z,98913.63
2018-12-15T03:09:55.964Z,98913.28
2018-12-15T03:12:24.541Z,98914.06
2018-12-15T03:14:53.053Z,98915.42
2018-12-15T03:17:21.524Z,98917.56
2018-12-15T03:19:50.600Z,98912.67
2018-12-15T03:22:19.150Z,98920.84
2018-12-15T03:24:47.726Z,98924.29
2018-12-15T03:27:16.295Z,98931.27
2018-12-15T03:29:44.795Z,98923.69
2018-12-15T03:32:13.279Z,98920.27
2018-12-15T03:34:41.742Z,98918.04
2018-12-15T03:37:10.232Z,98916.19
2018-12-15T03:39:38.686Z,98924.36
2018-12-15T03:42:07.177Z,98924.67
2018-12-15T03:44:35.707Z,98916.27
2018-12-15T03:47:04.231Z,98927.94
2018-12-15T03:49:32.799Z,98929.67
2018-12-15T03:52:01.313Z,98930.53
2018-12-15T03:54:29.789Z,98933.70
2018-12-15T03:56:58.287Z,98925.91
2018-12-15T03:59:27.074Z,98925.65
2018-12-15T04:01:55.563Z,98927.70
2018-12-15T04:04:24.109Z,98929.55
2018-12-15T04:06:52.591Z,98927.64
2018-12-15T04:09:21.084Z,98926.16
2018-12-15T04:11:49.600Z,98926.42
2018-12-15T04:14:18.189Z,98922.29
2018-12-15T04:16:46.771Z,98916.63
2018-12-15T04:19:15.258Z,98929.55
2018-12-15T04:21:43.735Z,98930.20
2018-12-15T04:24:12.207Z,98926.19
2018-12-15T04:26:40.669Z,98930.73
2018-12-15T04:29:12.274Z,98933.42
2018-12-15T04:31:40.985Z,98937.95
2018-12-15T04:34:09.453Z,98939.72
2018-12-15T04:36:37.934Z,98938.41
2018-12-15T04:39:06.777Z,98945.39
2018-12-15T04:41:35.322Z,98942.45
2018-12-15T04:44:04.054Z,98943.14
2018-12-15T04:46:32.523Z,98941.21
2018-12-15T04:49:01.073Z,98945.48
2018-12-15T04:51:29.534Z,98937.24
2018-12-15T04:53:58.078Z,98938.20
2018-12-15T04:56:26.565Z,98945.59
2018-12-15T04:58:55.024Z,98945.14
2018-12-15T05:01:23.531Z,98953.61
2018-12-15T05:03:52.078Z,98944.80
2018-12-15T05:06:20.597Z,98947.27
2018-12-15T05:08:49.074Z,98954.11
2018-12-15T05:11:17.559Z,98956.92
2018-12-15T05:13:46.217Z,98953.18
2018-12-15T05:16:14.704Z,98958.55
2018-12-15T05:18:43.304Z,98961.67
2018-12-15T05:21:11.817Z,98958.13
2018-12-15T05:23:40.367Z,98960.78
2018-12-15T05:26:08.899Z,98956.70
2018-12-15T05:28:37.372Z,98969.22
2018-12-15T05:31:05.973Z,98964.47
2018-12-15T05:33:34.768Z,98968.99
2018-12-15T05:36:03.279Z,98969.78
2018-12-15T05:38:31.730Z,98970.00
2018-12-15T05:41:00.210Z,98972.96
2018-12-15T05:43:28.731Z,98964.36
2018-12-15T05:45:57.341Z,98973.02
2018-12-15T05:48:25.810Z,98969.83
2018-12-15T05:50:54.277Z,98979.16
2018-12-15T05:53:22.823Z,98975.14
2018-12-15T05:55:52.027Z,98975.56
2018-12-15T05:58:20.520Z,98977.68
2018-12-15T06:00:49.138Z,98978.80
2018-12-15T06:03:17.710Z,98990.42
2018-12-15T06:05:46.203Z,98984.94
2018-12-15T06:08:14.683Z,98990.97
2018-12-15T06:10:43.789Z,98988.19
2018-12-15T06:13:12.258Z,98985.45
2018-12-15T06:15:40.763Z,98986.59
2018-12-15T06:18:09.225Z,98983.94
2018-12-15T06:20:37.731Z,98988.61
2018-12-15T06:23:06.210Z,98986.45
2018-12-15T06:25:34.752Z,98986.37
2018-12-15T06:28:03.317Z,98979.27
2018-12-15T06:30:31.786Z,98984.72
2018-12-15T06:33:00.354Z,98996.73
2018-12-15T06:35:28.867Z,98991.70
2018-12-15T06:37:57.320Z,98998.12
2018-12-15T06:40:25.977Z,98998.97
2018-12-15T06:42:55.954Z,98998.10
2018-12-15T06:45:24.485Z,98994.91
2018-12-15T06:47:53.026Z,98994.53
2018-12-15T06:50:21.514Z,98992.53
2018-12-15T06:52:50.099Z,98999.52
2018-12-15T06:55:18.609Z,98992.98
2018-12-15T06:57:47.159Z,99003.14
2018-12-15T07:00:15.641Z,98993.35
2018-12-15T07:02:44.108Z,98995.53
2018-12-15T07:05:12.733Z,99002.52
2018-12-15T07:07:41.213Z,99006.66
2018-12-15T07:10:09.845Z,99010.64
2018-12-15T07:12:39.319Z,99009.56
2018-12-15T07:15:08.570Z,99009.95
2018-12-15T07:17:37.470Z,99004.39
2018-12-15T07:20:06.446Z,99015.48
2018-12-15T07:22:34.979Z,99017.69
2018-12-15T07:25:03.623Z,99007.94
2018-12-15T07:27:32.178Z,99012.19
2018-12-15T07:30:01.608Z,99010.64
2018-12-15T07:32:30.165Z,99013.80
2018-12-15T07:35:01.139Z,99023.16
2018-12-15T07:37:29.172Z,99008.60
2018-12-15T07:39:57.699Z,99008.24
2018-12-15T07:42:26.270Z,99006.62
2018-12-15T07:44:54.770Z,99013.80
2018-12-15T07:47:23.246Z,99012.47
2018-12-15T07:49:51.715Z,99011.31
2018-12-15T07:52:20.186Z,99005.28
2018-12-15T07:54:48.764Z,99012.08
2018-12-15T07:57:17.233Z,99010.95
2018-12-15T07:59:45.710Z,99010.39
2018-12-15T08:02:14.172Z,99023.53
2018-12-15T08:04:42.642Z,99014.42
2018-12-15T08:07:11.429Z,99022.22
2018-12-15T08:09:39.953Z,99021.49
2018-12-15T08:12:13.665Z,99023.53
2018-12-15T08:14:42.238Z,99023.47
2018-12-15T08:17:10.798Z,99019.78
2018-12-15T08:19:39.331Z,99023.75
2018-12-15T08:22:07.783Z,99023.95
2018-12-15T08:24:36.278Z,99026.63
2018-12-15T08:27:04.965Z,99020.48
2018-12-15T08:29:33.454Z,99020.07
2018-12-15T08:32:02.018Z,99022.63
2018-12-15T08:34:30.497Z,99020.48
2018-12-15T08:37:00.494Z,99025.23
2018-12-15T08:39:29.027Z,99029.42
2018-12-15T08:41:57.546Z,99027.59
2018-12-15T08:44:26.111Z,99030.23
2018-12-15T08:46:54.588Z,99023.57
2018-12-15T08:49:23.109Z,99030.95
2018-12-15T08:51:51.598Z,99037.09
2018-12-15T08:54:20.061Z,99031.86
2018-12-15T08:56:48.540Z,99033.20
2018-12-15T08:59:17.023Z,99039.84
2018-12-15T09:01:45.506Z,99046.20
2018-12-15T09:04:14.115Z,99038.59
2018-12-15T09:06:42.585Z,99035.84
2018-12-15T09:09:11.110Z,99034.56
2018-12-15T09:11:39.691Z,99040.13
2018-12-15T09:14:08.190Z,99037.75
2018-12-15T09:16:36.639Z,99037.45
2018-12-15T09:19:11.067Z,99036.25
2018-12-15T09:21:35.753Z,99033.49
2018-12-15T09:24:04.524Z,99032.13
2018-12-15T09:26:33.111Z,99033.92
2018-12-15T09:29:01.626Z,99034.98
2018-12-15T09:31:30.114Z,99035.09
2018-12-15T09:33:58.770Z,99034.20
2018-12-15T09:36:27.249Z,99034.91
2018-12-15T09:38:56.019Z,99038.45
2018-12-15T09:41:24.469Z,99039.95
2018-12-15T09:43:53.002Z,99037.36
2018-12-15T09:46:21.464Z,99027.44
2018-12-15T09:48:50.765Z,99029.70
2018-12-15T09:51:19.244Z,99020.05
2018-12-15T09:53:48.990Z,99030.48
2018-12-15T09:56:17.626Z,99026.98
2018-12-15T09:58:46.099Z,99022.33
2018-12-15T10:01:14.586Z,99024.06
2018-12-15T10:03:43.271Z,99021.66
2018-12-15T10:06:11.778Z,99024.34
2018-12-15T10:08:40.243Z,99019.25
2018-12-15T10:11:08.755Z,99022.86
2018-12-15T10:13:37.257Z,99014.92
2018-12-15T10:16:05.889Z,99010.40
2018-12-15T10:18:34.394Z,99010.84
2018-12-15T10:21:02.881Z,99000.59
2018-12-15T10:23:31.422Z,99009.78
2018-12-15T10:25:59.882Z,99014.92
2018-12-15T10:28:28.396Z,98996.56
2018-12-15T10:31:02.126Z,99008.63
2018-12-15T10:33:30.643Z,99011.69
2018-12-15T10:35:59.143Z,99008.02
2018-12-15T10:38:27.782Z,98998.10
2018-12-15T10:40:56.317Z,98992.94
2018-12-15T10:43:24.822Z,98985.72
2018-12-15T10:45:53.275Z,98988.17
2018-12-15T10:48:21.778Z,98992.91
2018-12-15T10:50:50.249Z,98993.04
2018-12-15T10:53:18.835Z,98985.98
2018-12-15T10:55:47.293Z,98982.20
2018-12-15T10:58:15.913Z,98982.55
2018-12-15T11:00:49.583Z,98982.92
2018-12-15T11:03:18.742Z,98985.63
2018-12-15T11:05:47.206Z,98978.56
2018-12-15T11:08:15.684Z,98983.48
2018-12-15T11:10:44.210Z,98980.86
2018-12-15T11:13:12.774Z,98979.13
2018-12-15T11:15:41.214Z,98974.27
2018-12-15T11:18:09.777Z,98977.38
2018-12-15T11:20:38.388Z,98978.24
2018-12-15T11:23:06.901Z,98971.25
2018-12-15T11:25:36.338Z,98969.22
2018-12-15T11:28:04.945Z,98970.28
2018-12-15T11:30:33.449Z,98963.70
2018-12-15T11:33:04.467Z,98962.41
2018-12-15T11:35:35.189Z,98970.84
2018-12-15T11:38:06.393Z,98964.52
2018-12-15T11:40:37.470Z,98968.06
2018-12-15T11:43:09.059Z,98969.50
2018-12-15T11:45:40.255Z,98955.66
2018-12-15T11:48:13.286Z,98958.17
2018-12-15T11:50:44.642Z,98957.84
2018-12-15T11:53:16.573Z,98957.17
2018-12-15T11:55:47.747Z,98958.10
2018-12-15T11:58:20.395Z,98955.94
2018-12-15T12:00:52.661Z,98956.04
2018-12-15T12:03:23.992Z,98953.52
2018-12-15T12:05:55.099Z,98946.46
2018-12-15T12:08:26.385Z,98954.30
2018-12-15T12:10:57.630Z,98944.13
2018-12-15T12:13:28.804Z,98940.77
2018-12-15T12:15:58.614Z,98931.20
2018-12-15T12:18:27.919Z,98932.84
2018-12-15T12:20:59.136Z,98934.97
2018-12-15T12:23:29.378Z,98934.13
2018-12-15T12:26:00.499Z,98936.20
2018-12-15T12:28:31.507Z,98935.09
2018-12-15T12:31:03.642Z,98937.16
2018-12-15T12:33:34.011Z,98929.25
2018-12-15T12:36:04.109Z,98930.81
2018-12-15T12:38:41.164Z,98927.64
2018-12-15T12:41:11.943Z,98929.34
2018-12-15T12:43:42.608Z,98924.59
2018-12-15T12:46:13.471Z,98928.98
2018-12-15T12:48:44.666Z,98930.09
2018-12-15T12:51:13.743Z,98922.67
2018-12-15T12:53:42.297Z,98924.05
2018-12-15T12:56:10.806Z,98926.16
2018-12-15T12:58:39.289Z,98921.07
2018-12-15T13:01:08.697Z,98917.53
2018-12-15T13:03:37.177Z,98918.37
2018-12-15T13:06:05.646Z,98921.51
2018-12-15T13:08:34.242Z,98921.78
2018-12-15T13:11:02.828Z,98924.80
2018-12-15T13:13:31.335Z,98920.77
2018-12-15T13:15:59.890Z,98920.12
2018-12-15T13:18:28.390Z,98916.38
2018-12-15T13:20:56.962Z,98916.47
2018-12-15T13:23:25.447Z,98920.91
2018-12-15T13:25:53.929Z,98912.52
2018-12-15T13:28:23.900Z,98911.00
2018-12-15T13:30:52.927Z,98912.44
2018-12-15T13:33:32.276Z,98921.78
2018-12-15T13:36:05.028Z,98920.81
2018-12-15T13:38:36.788Z,98918.78
2018-12-15T13:41:06.590Z,98922.19
2018-12-15T13:43:37.775Z,98912.72
2018-12-15T13:46:07.447Z,98923.95
2018-12-15T13:48:37.219Z,98930.00
2018-12-15T13:51:06.715Z,98920.13
2018-12-15T13:53:35.233Z,98922.94
2018-12-15T13:56:08.511Z,98923.08
2018-12-15T13:58:37.140Z,98923.75
2018-12-15T14:01:05.830Z,98921.89
2018-12-15T14:03:34.407Z,98927.43
2018-12-15T14:06:03.014Z,98930.06
2018-12-15T14:08:31.513Z,98926.59
2018-12-15T14:10:59.970Z,98922.94
2018-12-15T14:13:28.460Z,98928.81
2018-12-15T14:15:56.958Z,98936.15
2018-12-15T14:18:25.673Z,98930.06
2018-12-15T14:20:54.210Z,98928.16
2018-12-15T14:23:22.806Z,98931.66
2018-12-15T14:25:51.466Z,98930.05
2018-12-15T14:28:19.990Z,98923.59
2018-12-15T14:30:48.541Z,98928.70
2018-12-15T14:33:17.213Z,98916.87
2018-12-15T14:35:45.806Z,98919.89
2018-12-15T14:38:14.487Z,98916.05
2018-12-15T14:40:43.178Z,98914.80
2018-12-15T14:43:11.759Z,98910.75
2018-12-15T14:45:40.303Z,98912.36
2018-12-15T14:48:09.058Z,98911.56
2018-12-15T14:50:37.535Z,98907.77
2018-12-15T14:53:06.046Z,98909.79
2018-12-15T14:55:34.733Z,98908.81
2018-12-15T14:58:03.258Z,98917.77
2018-12-15T15:00:31.836Z,98908.27
2018-12-15T15:03:00.435Z,98913.56
2018-12-15T15:05:28.927Z,98906.69
2018-12-15T15:07:57.459Z,98900.05
2018-12-15T15:10:26.673Z,98907.64
2018-12-15T15:12:55.151Z,98898.98
2018-12-15T15:15:23.686Z,98902.84
2018-12-15T15:17:52.289Z,98907.31
2018-12-15T15:20:21.377Z,98899.10
2018-12-15T15:22:50.058Z,98903.41
2018-12-15T15:25:18.637Z,98898.30
2018-12-15T15:27:47.333Z,98906.36
2018-12-15T15:30:16.186Z,98898.77
2018-12-15T15:32:45.930Z,98899.88
2018-12-15T15:35:14.881Z,98890.75
2018-12-15T15:37:43.434Z,98891.27
2018-12-15T15:40:12.065Z,98887.70
2018-12-15T15:42:40.709Z,98889.20
2018-12-15T15:45:09.458Z,98888.88
2018-12-15T15:47:38.607Z,98888.95
2018-12-15T15:50:08.485Z,98880.70
2018-12-15T15:52:37.150Z,98881.79
2018-12-15T15:55:06.932Z,98880.96
2018-12-15T15:57:35.525Z,98876.91
2018-12-15T16:00:05.143Z,98878.59
2018-12-15T16:02:33.855Z,98883.70
2018-12-15T16:05:02.515Z,98878.17
2018-12-15T16:07:31.210Z,98876.07
2018-12-15T16:09:59.790Z,98887.25
2018-12-15T16:12:28.315Z,98881.61
2018-12-15T16:14:56.792Z,98875.92
2018-12-15T16:17:25.269Z,98871.30
2018-12-15T16:19:53.806Z,98872.27
2018-12-15T16:22:22.382Z,98869.42
2018-12-15T16:24:51.140Z,98867.20
2018-12-15T16:27:19.723Z,98868.94
2018-12-15T16:29:48.182Z,98867.83
2018-12-15T16:32:17.535Z,98867.02
2018-12-15T16:34:46.051Z,98861.84
2018-12-15T16:37:15.525Z,98858.88
2018-12-15T16:39:44.886Z,98864.34
2018-12-15T16:42:13.551Z,98858.40
2018-12-15T16:44:42.170Z,98851.97
2018-12-15T16:47:10.733Z,98851.42
2018-12-15T16:49:39.208Z,98854.17
2018-12-15T16:52:08.324Z,98845.55
2018-12-15T16:54:36.794Z,98850.67
2018-12-15T16:57:06.095Z,98850.15
2018-12-15T16:59:34.658Z,98849.45
2018-12-15T17:02:03.722Z,98846.31
2018-12-15T17:04:32.211Z,98850.48
2018-12-15T17:07:00.723Z,98848.18
2018-12-15T17:09:29.216Z,98843.28
2018-12-15T17:11:57.730Z,98839.05
2018-12-15T17:14:26.278Z,98845.16
2018-12-15T17:16:55.620Z,98831.67
2018-12-15T17:19:24.231Z,98830.11
2018-12-15T17:21:52.770Z,98815.16
2018-12-15T17:24:21.401Z,98817.48
2018-12-15T17:26:49.901Z,98816.16
2018-12-15T17:29:18.403Z,98816.16
2018-12-15T17:31:47.074Z,98822.34
2018-12-15T17:34:15.659Z,98817.14
2018-12-15T17:36:44.451Z,98811.28
2018-12-15T17:39:13.717Z,98807.92
2018-12-15T17:41:43.494Z,98806.81
2018-12-15T17:44:13.359Z,98814.69
2018-12-15T17:46:43.664Z,98810.72
2018-12-15T17:49:12.989Z,98801.20
2018-12-15T17:51:42.006Z,98807.33
2018-12-15T17:54:11.428Z,98793.09
2018-12-15T17:56:41.247Z,98792.72
2018-12-15T17:59:10.082Z,98796.83
2018-12-15T18:01:38.918Z,98789.95
2018-12-15T18:04:07.662Z,98792.52
2018-12-15T18:06:36.285Z,98795.15
2018-12-15T18:09:07.226Z,98787.66
2018-12-15T18:11:36.014Z,98777.29
2018-12-15T18:14:04.743Z,98771.77
2018-12-15T18:16:33.287Z,98772.05
2018-12-15T18:19:03.274Z,98769.45
2018-12-15T18:21:32.053Z,98774.28
2018-12-15T18:24:01.287Z,98769.73
2018-12-15T18:26:30.157Z,98770.81
2018-12-15T18:28:58.775Z,98769.69
2018-12-15T18:31:27.513Z,98768.24
2018-12-15T18:33:57.043Z,98765.34
2018-12-15T18:36:26.706Z,98759.76
2018-12-15T18:38:55.855Z,98760.27
2018-12-15T18:41:24.681Z,98758.34
2018-12-15T18:43:54.663Z,98753.24
2018-12-15T18:46:24.220Z,98748.95
2018-12-15T18:48:55.070Z,98748.59
2018-12-15T18:51:24.318Z,98740.98
2018-12-15T18:53:52.887Z,98731.65
2018-12-15T18:56:22.086Z,98725.08
2018-12-15T18:58:50.573Z,98718.26
2018-12-15T19:01:19.391Z,98719.60
2018-12-15T19:03:48.162Z,98709.45
2018-12-15T19:06:16.679Z,98708.67
2018-12-15T19:08:45.389Z,98719.06
2018-12-15T19:11:13.869Z,98713.47
2018-12-15T19:13:42.535Z,98711.42
2018-12-15T19:16:11.153Z,98722.05
2018-12-15T19:18:39.759Z,98722.25
2018-12-15T19:21:08.358Z,98709.47
2018-12-15T19:23:36.889Z,98708.14
2018-12-15T19:26:06.114Z,98709.95
2018-12-15T19:28:34.618Z,98702.42
2018-12-15T19:31:03.330Z,98698.73
2018-12-15T19:33:32.479Z,98698.96
2018-12-15T19:36:01.014Z,98691.66
2018-12-15T19:38:29.633Z,98689.76
2018-12-15T19:40:58.190Z,98675.12
2018-12-15T19:43:26.721Z,98674.02
2018-12-15T19:45:55.372Z,98676.99
2018-12-15T19:48:23.967Z,98680.39
2018-12-15T19:50:52.503Z,98671.00
2018-12-15T19:53:21.116Z,98666.47
2018-12-15T19:55:49.701Z,98661.56
2018-12-15T19:58:19.106Z,98658.06
2018-12-15T20:00:47.769Z,98658.53
2018-12-15T20:03:16.298Z,98647.81
2018-12-15T20:05:44.870Z,98642.89
2018-12-15T20:08:13.603Z,98643.90
2018-12-15T20:10:42.104Z,98639.38
2018-12-15T20:13:10.727Z,98637.27
2018-12-15T20:15:40.432Z,98633.25
2018-12-15T20:18:09.369Z,98630.45
2018-12-15T20:20:38.093Z,98628.58
2018-12-15T20:23:06.713Z,98630.31
2018-12-15T20:25:35.217Z,98623.33
2018-12-15T20:28:04.542Z,98623.31
2018-12-15T20:30:33.131Z,98623.33
2018-12-15T20:33:01.678Z,98620.59
2018-12-15T20:35:30.175Z,98612.08
2018-12-15T20:37:58.661Z,98603.77
2018-12-15T20:40:27.185Z,98605.14
2018-12-15T20:42:55.698Z,98612.86
2018-12-15T20:45:24.188Z,98608.84
2018-12-15T20:47:52.683Z,98604.27
2018-12-15T20:50:21.718Z,98600.53
2018-12-15T20:52:50.829Z,98601.00
2018-12-15T20:55:19.460Z,98595.17
2018-12-15T20:57:49.327Z,98591.25
2018-12-15T21:00:18.098Z,98596.00
2018-12-15T21:02:46.685Z,98581.66
2018-12-15T21:05:15.269Z,98573.38
2018-12-15T21:07:43.966Z,98568.89
2018-12-15T21:10:13.211Z,98571.61
2018-12-15T21:12:43.397Z,98570.27
2018-12-15T21:15:18.194Z,98562.78
2018-12-15T21:17:46.747Z,98562.75
2018-12-15T21:20:15.293Z,98554.41
2018-12-15T21:22:44.030Z,98560.30
2018-12-15T21:25:14.321Z,98556.79
2018-12-15T21:27:42.989Z,98544.23
2018-12-15T21:30:14.930Z,98536.75
2018-12-15T21:32:45.908Z,98542.11
2018-12-15T21:35:14.672Z,98539.98
2018-12-15T21:37:45.051Z,98535.14
2018-12-15T21:40:15.422Z,98530.81
2018-12-15T21:42:43.946Z,98518.72
2018-12-15T21:45:12.547Z,98510.27
2018-12-15T21:47:41.782Z,98504.03
2018-12-15T21:50:10.744Z,98498.66
2018-12-15T21:52:39.566Z,98501.63
2018-12-15T21:55:08.217Z,98510.45
2018-12-15T21:57:37.019Z,98495.38
2018-12-15T22:00:05.937Z,98499.19
2018-12-15T22:02:34.437Z,98507.15
2018-12-15T22:05:03.132Z,98496.75
2018-12-15T22:07:31.767Z,98494.31
2018-12-15T22:10:00.301Z,98492.45
2018-12-15T22:12:29.541Z,98497.28
2018-12-15T22:14:58.371Z,98504.02
2018-12-15T22:17:26.876Z,98490.13
2018-12-15T22:19:55.758Z,98481.75
2018-12-15T22:22:24.369Z,98479.83
2018-12-15T22:24:53.286Z,98468.09
2018-12-15T22:27:22.263Z,98460.28
2018-12-15T22:29:51.013Z,98465.12
2018-12-15T22:32:19.721Z,98461.36
2018-12-15T22:34:48.253Z,98456.83
2018-12-15T22:37:16.870Z,98458.99
2018-12-15T22:39:45.485Z,98458.45
2018-12-15T22:42:14.234Z,98462.94
2018-12-15T22:44:43.335Z,98447.94
2018-12-15T22:47:11.906Z,98446.64
2018-12-15T22:49:40.507Z,98444.72
2018-12-15T22:52:09.922Z,98443.63
2018-12-15T22:54:38.690Z,98428.63
2018-12-15T22:57:07.321Z,98425.16
2018-12-15T22:59:35.862Z,98431.58
2018-12-15T23:02:04.722Z,98417.64
2018-12-15T23:04:33.603Z,98418.50
2018-12-15T23:07:02.982Z,98415.77
2018-12-15T23:09:31.494Z,98412.28
2018-12-15T23:12:00.108Z,98400.48
2018-12-15T23:14:28.690Z,98403.16
2018-12-15T23:16:57.427Z,98412.35
2018-12-15T23:19:25.998Z,98401.61
2018-12-15T23:21:54.536Z,98393.48
2018-12-15T23:24:23.682Z,98393.48
2018-12-15T23:26:52.217Z,98386.22
2018-12-15T23:29:21.163Z,98380.11
2018-12-15T23:31:49.789Z,98380.37
2018-12-15T23:34:18.381Z,98380.69
2018-12-15T23:36:46.958Z,98384.43
2018-12-15T23:39:15.942Z,98372.59
2018-12-15T23:41:44.438Z,98368.55
2018-12-15T23:44:13.026Z,98368.52
2018-12-15T23:46:41.518Z,98358.09
2018-12-15T23:49:10.083Z,98354.41
2018-12-15T23:51:38.630Z,98341.97
2018-12-15T23:54:07.099Z,98336.66
2018-12-15T23:56:35.566Z,98339.09
2018-12-15T23:59:04.038Z,98335.31
